This is the latest recevied weather packets stored in our database for station/object E24TVS-1. If no packets are shown the sender has not sent any weather packets the latest 10 day(s).
| Time | Temp. | Humidity | Pressure | Rain* | Wind** | Luminosity | Snow |
|---|---|---|---|---|---|---|---|
| 1777522897 | 30° C | 66% | 993 hPa | - | - | 0 W/m² | - |
| 1777522275 | 30° C | 65% | 994 hPa | - | - | 0 W/m² | - |
| 1777521652 | 30° C | 66% | 994 hPa | - | - | 0 W/m² | - |
| 1777521030 | 30° C | 67% | 994 hPa | - | - | 0 W/m² | - |
| 1777520407 | 30° C | 67% | 994 hPa | - | - | 0 W/m² | - |
| 1777519785 | 29.44° C | 69% | 994 hPa | - | - | 0 W/m² | - |
| 1777519162 | 29.44° C | 70% | 994 hPa | - | - | 0 W/m² | - |
| 1777518539 | 29.44° C | 70% | 994 hPa | - | - | 0 W/m² | - |
| 1777517917 | 28.89° C | 71% | 994 hPa | - | - | 0 W/m² | - |
| 1777517293 | 28.89° C | 72% | 994 hPa | - | - | 0 W/m² | - |
| 1777516670 | 28.89° C | 72% | 994 hPa | - | - | 0 W/m² | - |
| 1777516047 | 28.89° C | 73% | 994 hPa | - | - | 0 W/m² | - |
| 1777515424 | 28.33° C | 74% | 994 hPa | - | - | 0 W/m² | - |
| 1777514801 | 28.33° C | 74% | 994 hPa | - | - | 0 W/m² | - |
| 1777514179 | 28.89° C | 72% | 994 hPa | - | - | 0 W/m² | - |
| 1777513556 | 28.89° C | 72% | 994 hPa | - | - | 0 W/m² | - |
| 1777512933 | 28.89° C | 73% | 993 hPa | - | - | 0 W/m² | - |
| 1777512311 | 28.89° C | 74% | 993 hPa | - | - | 0 W/m² | - |
| 1777511687 | 28.33° C | 75% | 994 hPa | - | - | 0 W/m² | - |
| 1777511064 | 28.33° C | 76% | 994 hPa | - | - | 0 W/m² | - |
| 1777510441 | 28.33° C | 77% | 994 hPa | - | - | 0 W/m² | - |
| 1777509819 | 27.78° C | 80% | 993 hPa | - | - | 0 W/m² | - |
| 1777509196 | 27.78° C | 80% | 993 hPa | - | - | 0 W/m² | - |
| 1777508573 | 27.78° C | 82% | 993 hPa | - | - | 0 W/m² | - |
| 1777507949 | 27.22° C | 83% | 993 hPa | - | - | 0 W/m² | - |
* Rain since midnight (hover to see other rain measurements)
** Current wind speed in m/s (hover to see current wind gust speed)